Time;durP1;ratioP1;P1;durP2;ratioP2;P2;SDS_P1;SDS_P2;PMS_P1;PMS_P2;Temp;Humidity;BMP_temperature;BMP_pressure;BME280_temperature;BME280_humidity;BME280_pressure;Samples;Min_cycle;Max_cycle;Signal;HPM_P1;HPM_P2
2022/05/29 00:00:09;;;;;;;;;;;9.40;99.90;;;;;;4980272;28;19945;-65
2022/05/29 00:02:35;;;;;;;;;;;9.40;99.90;;;;;;4982989;28;19926;-65
2022/05/29 00:05:02;;;;;;;;;;;9.50;99.90;;;;;;4966447;28;19926;-65
2022/05/29 00:07:29;;;;;;;;;;;9.50;99.90;;;;;;4965254;28;19938;-65
2022/05/29 00:09:55;;;;;;;;;;;9.60;99.90;;;;;;4973360;28;19926;-66
2022/05/29 00:12:24;;;;;;;;;;;9.60;99.90;;;;;;4968468;28;20373;-65
2022/05/29 00:14:50;;;;;;;;;;;9.60;99.90;;;;;;4994901;28;19967;-65
2022/05/29 00:17:17;;;;;;;;;;;9.70;99.90;;;;;;4998288;28;20025;-64
2022/05/29 00:19:44;;;;;;;;;;;9.60;99.90;;;;;;4970745;28;19926;-64
2022/05/29 00:22:12;;;;;;;;;;;9.60;99.90;;;;;;4965274;28;19930;-65
2022/05/29 00:24:39;;;;;;;;;;;9.60;99.90;;;;;;4974554;28;20301;-65
2022/05/29 00:27:06;;;;;;;;;;;9.60;99.90;;;;;;4960726;28;19961;-65
2022/05/29 00:29:35;;;;;;;;;;;9.60;99.90;;;;;;4963779;28;19926;-66
2022/05/29 00:32:02;;;;;;;;;;;9.60;99.90;;;;;;4966692;28;19926;-65
2022/05/29 00:34:28;;;;;;;;;;;9.60;99.90;;;;;;4966307;28;20293;-65
2022/05/29 00:36:58;;;;;;;;;;;9.60;99.90;;;;;;4963317;28;19927;-65
2022/05/29 00:39:25;;;;;;;;;;;9.50;99.90;;;;;;4966031;28;20389;-66
2022/05/29 00:41:52;;;;;;;;;;;9.50;99.90;;;;;;4960068;28;19934;-66
2022/05/29 00:44:19;;;;;;;;;;;9.50;99.90;;;;;;4970507;28;19962;-65
2022/05/29 00:46:48;;;;;;;;;;;9.50;99.90;;;;;;4968130;28;20377;-65
2022/05/29 00:49:16;;;;;;;;;;;9.60;99.90;;;;;;4965711;28;20005;-65
2022/05/29 00:51:44;;;;;;;;;;;9.60;99.90;;;;;;4967454;28;19926;-65
2022/05/29 00:54:12;;;;;;;;;;;9.70;99.90;;;;;;4973937;28;19979;-65
2022/05/29 00:56:40;;;;;;;;;;;9.60;99.90;;;;;;4993089;28;19935;-65
2022/05/29 00:59:08;;;;;;;;;;;9.60;99.90;;;;;;4967113;28;19972;-65
2022/05/29 01:01:35;;;;;;;;;;;9.60;99.90;;;;;;4963857;28;19926;-65
2022/05/29 01:04:03;;;;;;;;;;;9.70;99.90;;;;;;4965803;28;20381;-65
2022/05/29 01:06:30;;;;;;;;;;;9.60;99.90;;;;;;4962906;28;20067;-65
2022/05/29 01:08:58;;;;;;;;;;;9.60;99.90;;;;;;4967094;28;20312;-65
2022/05/29 01:11:30;;;;;;;;;;;9.60;99.90;;;;;;4967774;28;20354;-65
2022/05/29 01:14:02;;;;;;;;;;;9.50;99.90;;;;;;4968834;28;19940;-66
2022/05/29 01:16:35;;;;;;;;;;;9.50;99.90;;;;;;4970525;28;20025;-66
2022/05/29 01:19:16;;;;;;;;;;;9.50;99.90;;;;;;4971571;28;19930;-65
2022/05/29 01:21:50;;;;;;;;;;;9.40;99.90;;;;;;4968078;28;20546;-66
2022/05/29 01:24:41;;;;;;;;;;;9.30;99.90;;;;;;4970572;28;19933;-65
2022/05/29 01:27:19;;;;;;;;;;;9.20;99.90;;;;;;4948847;28;19926;-65
2022/05/29 01:29:53;;;;;;;;;;;9.20;99.90;;;;;;4969053;28;20274;-66
2022/05/29 01:32:25;;;;;;;;;;;9.20;99.90;;;;;;4970991;28;19933;-65
2022/05/29 01:34:53;;;;;;;;;;;9.30;99.90;;;;;;4966477;28;19926;-64
2022/05/29 01:37:22;;;;;;;;;;;9.30;99.90;;;;;;4967464;28;19926;-64
2022/05/29 01:39:52;;;;;;;;;;;9.40;99.90;;;;;;4984666;28;19937;-64
2022/05/29 01:42:21;;;;;;;;;;;9.40;99.90;;;;;;4971554;28;20339;-65
2022/05/29 01:44:54;;;;;;;;;;;9.40;99.90;;;;;;4977869;28;19972;-64
2022/05/29 01:47:23;;;;;;;;;;;9.50;99.90;;;;;;4967321;28;19969;-64
2022/05/29 01:49:51;;;;;;;;;;;9.60;99.90;;;;;;4993319;28;19931;-64
2022/05/29 01:52:21;;;;;;;;;;;9.50;99.90;;;;;;4973899;28;19926;-64
2022/05/29 01:54:51;;;;;;;;;;;9.60;99.90;;;;;;4971659;28;19948;-64
2022/05/29 01:57:19;;;;;;;;;;;9.60;99.90;;;;;;4965318;28;19933;-65
2022/05/29 01:59:48;;;;;;;;;;;9.60;99.90;;;;;;4982096;28;19934;-64
2022/05/29 02:02:19;;;;;;;;;;;9.50;99.90;;;;;;4978679;28;19926;-65
2022/05/29 02:04:47;;;;;;;;;;;9.20;99.90;;;;;;4966898;28;19930;-64
2022/05/29 02:10:02;;;;;;;;;;;9.10;99.90;;;;;;4984032;28;20470;-64
2022/05/29 02:12:29;;;;;;;;;;;9.00;99.90;;;;;;4964406;28;19985;-64
2022/05/29 02:14:57;;;;;;;;;;;9.00;99.90;;;;;;4971136;28;19933;-64
2022/05/29 02:17:27;;;;;;;;;;;8.90;99.90;;;;;;4971054;28;19936;-65
2022/05/29 02:19:54;;;;;;;;;;;9.00;99.90;;;;;;4970638;28;19926;-64
2022/05/29 02:22:25;;;;;;;;;;;8.90;99.90;;;;;;4967898;28;20041;-64
2022/05/29 02:24:55;;;;;;;;;;;8.80;99.90;;;;;;4965987;28;20350;-64
2022/05/29 02:27:26;;;;;;;;;;;8.80;99.90;;;;;;4962637;28;19926;-64
2022/05/29 02:29:53;;;;;;;;;;;8.80;99.90;;;;;;4984278;28;19926;-65
2022/05/29 02:32:24;;;;;;;;;;;8.70;99.90;;;;;;4984130;28;19937;-65
2022/05/29 02:35:00;;;;;;;;;;;8.80;99.90;;;;;;4997117;28;19926;-66
2022/05/29 02:37:31;;;;;;;;;;;8.90;99.90;;;;;;4963463;28;19926;-65
2022/05/29 02:40:08;;;;;;;;;;;8.90;99.90;;;;;;4969445;28;19926;-66
2022/05/29 02:42:38;;;;;;;;;;;9.00;99.90;;;;;;4968153;28;19926;-65
2022/05/29 02:45:08;;;;;;;;;;;9.10;99.90;;;;;;4964523;28;19926;-65
2022/05/29 02:47:42;;;;;;;;;;;9.20;99.90;;;;;;4977264;28;19933;-65
2022/05/29 02:50:22;;;;;;;;;;;9.30;99.90;;;;;;5010840;28;19924;-64
2022/05/29 02:52:51;;;;;;;;;;;9.30;99.90;;;;;;4976816;28;19936;-64
2022/05/29 02:55:17;;;;;;;;;;;9.30;99.90;;;;;;4956131;28;20401;-65
2022/05/29 02:57:44;;;;;;;;;;;9.40;99.90;;;;;;4968107;28;19934;-64
2022/05/29 03:00:13;;;;;;;;;;;9.30;99.90;;;;;;4970716;28;20419;-65
2022/05/29 03:02:43;;;;;;;;;;;9.30;99.90;;;;;;4975921;28;19962;-65
2022/05/29 03:05:14;;;;;;;;;;;9.40;99.90;;;;;;5024318;28;19935;-65
2022/05/29 03:07:48;;;;;;;;;;;9.40;99.90;;;;;;4977508;28;19926;-65
2022/05/29 03:10:16;;;;;;;;;;;9.30;99.90;;;;;;4971209;28;19984;-65
2022/05/29 03:12:53;;;;;;;;;;;9.30;99.90;;;;;;4971087;28;20021;-65
2022/05/29 03:15:24;;;;;;;;;;;9.30;99.90;;;;;;4969357;28;19930;-66
2022/05/29 03:17:54;;;;;;;;;;;9.20;99.90;;;;;;4961019;28;19926;-66
2022/05/29 03:20:25;;;;;;;;;;;9.30;99.90;;;;;;4968143;28;20026;-66
2022/05/29 03:22:56;;;;;;;;;;;9.30;99.90;;;;;;4968153;28;19927;-66
2022/05/29 03:25:29;;;;;;;;;;;9.40;99.90;;;;;;4951432;28;19931;-66
2022/05/29 03:27:58;;;;;;;;;;;9.40;99.90;;;;;;4957852;28;19949;-66
2022/05/29 03:30:27;;;;;;;;;;;9.40;99.90;;;;;;4965666;28;19926;-66
2022/05/29 03:32:55;;;;;;;;;;;9.40;99.90;;;;;;4961938;28;19933;-66
2022/05/29 03:35:24;;;;;;;;;;;9.40;99.90;;;;;;4976105;28;20012;-66
2022/05/29 03:37:51;;;;;;;;;;;9.40;99.90;;;;;;4969403;28;20013;-66
2022/05/29 03:40:20;;;;;;;;;;;9.40;99.90;;;;;;4963875;28;19931;-65
2022/05/29 03:42:46;;;;;;;;;;;9.40;99.90;;;;;;4966864;28;19926;-66
2022/05/29 03:45:13;;;;;;;;;;;9.40;99.90;;;;;;4967508;28;19926;-66
2022/05/29 03:47:40;;;;;;;;;;;9.30;99.90;;;;;;4966619;28;20009;-66
2022/05/29 03:50:08;;;;;;;;;;;9.30;99.90;;;;;;4998602;28;19925;-66
2022/05/29 03:52:35;;;;;;;;;;;9.30;99.90;;;;;;4963401;28;19933;-66
2022/05/29 03:55:03;;;;;;;;;;;9.30;99.90;;;;;;4970119;28;20448;-66
2022/05/29 03:57:31;;;;;;;;;;;9.30;99.90;;;;;;4967740;28;20048;-66
2022/05/29 03:59:57;;;;;;;;;;;9.30;99.90;;;;;;5018700;28;19995;-66
2022/05/29 04:02:24;;;;;;;;;;;9.30;99.90;;;;;;4962026;28;19926;-67
2022/05/29 04:04:51;;;;;;;;;;;9.40;99.90;;;;;;4965297;28;19926;-67
2022/05/29 04:07:17;;;;;;;;;;;9.50;99.90;;;;;;4968490;28;19927;-66
2022/05/29 04:12:29;;;;;;;;;;;9.50;99.90;;;;;;4964358;28;19932;-66
2022/05/29 04:14:57;;;;;;;;;;;9.60;99.90;;;;;;5025165;28;19928;-66
2022/05/29 04:17:24;;;;;;;;;;;9.50;99.90;;;;;;4968640;28;19926;-66
2022/05/29 04:19:50;;;;;;;;;;;9.60;99.90;;;;;;4963253;28;19931;-66
2022/05/29 04:22:18;;;;;;;;;;;9.60;99.90;;;;;;4960030;28;19937;-66
2022/05/29 04:24:45;;;;;;;;;;;9.60;99.90;;;;;;4967851;28;19965;-66
2022/05/29 04:27:12;;;;;;;;;;;9.60;99.90;;;;;;4966683;28;19932;-67
2022/05/29 04:29:39;;;;;;;;;;;9.50;99.90;;;;;;4973778;28;19926;-67
2022/05/29 04:34:53;;;;;;;;;;;9.50;99.90;;;;;;4967806;28;19933;-66
2022/05/29 04:37:20;;;;;;;;;;;9.40;99.90;;;;;;4966581;28;19972;-66
2022/05/29 04:39:46;;;;;;;;;;;9.40;99.90;;;;;;4967926;28;19930;-66
2022/05/29 04:42:13;;;;;;;;;;;9.50;99.90;;;;;;4975978;28;19933;-66
2022/05/29 04:44:39;;;;;;;;;;;9.50;99.90;;;;;;4981649;28;20012;-65
2022/05/29 04:47:09;;;;;;;;;;;9.50;99.90;;;;;;4975683;28;19938;-67
2022/05/29 04:49:38;;;;;;;;;;;9.40;99.90;;;;;;4970589;28;19930;-66
2022/05/29 04:52:05;;;;;;;;;;;9.40;99.90;;;;;;4969972;28;19935;-66
2022/05/29 04:54:33;;;;;;;;;;;9.40;99.90;;;;;;4972435;28;19933;-66
2022/05/29 04:57:00;;;;;;;;;;;9.40;99.90;;;;;;4971034;28;20411;-66
2022/05/29 04:59:26;;;;;;;;;;;9.40;99.90;;;;;;4963048;28;19933;-66
2022/05/29 05:01:55;;;;;;;;;;;9.40;99.90;;;;;;5011202;28;19926;-66
2022/05/29 05:04:24;;;;;;;;;;;9.50;99.90;;;;;;4956510;28;19981;-65
2022/05/29 05:06:50;;;;;;;;;;;9.50;99.90;;;;;;4972245;28;20001;-65
2022/05/29 05:09:17;;;;;;;;;;;9.60;99.90;;;;;;4971849;28;19992;-64
2022/05/29 05:11:43;;;;;;;;;;;9.60;99.90;;;;;;4970545;28;19938;-65
2022/05/29 05:14:10;;;;;;;;;;;9.60;99.90;;;;;;4969922;28;20018;-64
2022/05/29 05:16:37;;;;;;;;;;;9.70;99.90;;;;;;4972450;28;19937;-65
2022/05/29 05:19:03;;;;;;;;;;;9.80;99.90;;;;;;4970467;28;19970;-65
2022/05/29 05:21:31;;;;;;;;;;;9.80;99.90;;;;;;4973136;28;19936;-65
2022/05/29 05:23:58;;;;;;;;;;;9.80;99.90;;;;;;4962853;28;19933;-65
2022/05/29 05:26:25;;;;;;;;;;;9.90;99.90;;;;;;4973917;28;19930;-65
2022/05/29 05:28:52;;;;;;;;;;;9.90;99.90;;;;;;4967574;28;19933;-66
2022/05/29 05:31:19;;;;;;;;;;;9.90;99.90;;;;;;4970265;28;19933;-65
2022/05/29 05:33:45;;;;;;;;;;;10.00;99.90;;;;;;4972557;28;20022;-65
2022/05/29 05:36:14;;;;;;;;;;;10.10;99.90;;;;;;4963392;28;19927;-66
2022/05/29 05:38:42;;;;;;;;;;;10.10;99.90;;;;;;4959825;28;19984;-66
2022/05/29 05:41:09;;;;;;;;;;;10.20;99.90;;;;;;4968269;28;20021;-66
2022/05/29 05:43:36;;;;;;;;;;;10.20;99.90;;;;;;4970883;28;19926;-65
2022/05/29 05:46:06;;;;;;;;;;;10.40;99.90;;;;;;4965717;28;19932;-65
2022/05/29 05:48:33;;;;;;;;;;;10.40;99.90;;;;;;4967172;28;19934;-65
2022/05/29 05:51:00;;;;;;;;;;;10.50;99.90;;;;;;4971134;28;19934;-64
2022/05/29 05:53:27;;;;;;;;;;;10.70;99.90;;;;;;4971772;28;19932;-65
2022/05/29 05:55:55;;;;;;;;;;;11.00;99.90;;;;;;4966558;28;20369;-65
2022/05/29 05:58:22;;;;;;;;;;;12.70;99.90;;;;;;4960674;28;19926;-64
2022/05/29 06:00:49;;;;;;;;;;;14.80;99.90;;;;;;4966353;28;19926;-62
2022/05/29 06:03:16;;;;;;;;;;;16.90;96.20;;;;;;4974132;28;19930;-63
2022/05/29 06:05:43;;;;;;;;;;;18.90;85.30;;;;;;4970925;28;19938;-63
2022/05/29 06:08:10;;;;;;;;;;;19.20;63.30;;;;;;4959237;28;19934;-63
2022/05/29 06:10:37;;;;;;;;;;;19.30;59.80;;;;;;4962776;28;20005;-64
2022/05/29 06:13:05;;;;;;;;;;;19.70;57.30;;;;;;4964950;28;20307;-64
2022/05/29 06:15:32;;;;;;;;;;;19.80;51.80;;;;;;4970043;28;19926;-63
2022/05/29 06:17:59;;;;;;;;;;;19.50;52.10;;;;;;4967301;28;19939;-63
2022/05/29 06:20:26;;;;;;;;;;;19.60;51.20;;;;;;4969943;28;19934;-63
2022/05/29 06:22:52;;;;;;;;;;;19.60;48.90;;;;;;4970485;28;19926;-63
2022/05/29 06:25:19;;;;;;;;;;;19.70;49.50;;;;;;4983291;28;20283;-63
2022/05/29 06:27:46;;;;;;;;;;;20.00;47.40;;;;;;4996859;28;20440;-63
2022/05/29 06:30:16;;;;;;;;;;;19.70;46.40;;;;;;4964677;28;19927;-63
2022/05/29 06:32:42;;;;;;;;;;;19.60;44.80;;;;;;4968748;28;19933;-63
2022/05/29 06:35:11;;;;;;;;;;;19.00;45.50;;;;;;4963846;28;19927;-63
2022/05/29 06:37:37;;;;;;;;;;;17.40;49.10;;;;;;4967280;28;20293;-63
2022/05/29 06:40:05;;;;;;;;;;;15.80;54.20;;;;;;4960007;28;19984;-63
2022/05/29 06:42:31;;;;;;;;;;;15.10;57.90;;;;;;4968151;28;19953;-65
2022/05/29 06:44:59;;;;;;;;;;;14.50;62.30;;;;;;4968493;28;19946;-65
2022/05/29 06:47:27;;;;;;;;;;;14.10;67.00;;;;;;4972308;28;19933;-65
2022/05/29 06:49:53;;;;;;;;;;;14.20;70.40;;;;;;4957671;28;19984;-65
2022/05/29 06:52:20;;;;;;;;;;;14.20;73.00;;;;;;4968232;28;19977;-65
2022/05/29 06:54:47;;;;;;;;;;;13.90;74.60;;;;;;4969388;28;19933;-65
2022/05/29 06:57:36;;;;;;;;;;;13.60;78.10;;;;;;4979758;28;19965;-64
2022/05/29 07:08:19;;;;;;;;;;;12.70;90.80;;;;;;4961444;28;19971;-65
2022/05/29 07:10:46;;;;;;;;;;;12.40;91.80;;;;;;4991676;28;20490;-65
2022/05/29 07:13:13;;;;;;;;;;;12.40;94.10;;;;;;4976069;28;19930;-65
2022/05/29 07:15:40;;;;;;;;;;;12.20;94.40;;;;;;4971505;28;19934;-66
2022/05/29 07:18:08;;;;;;;;;;;12.40;95.30;;;;;;4959046;28;19926;-65
2022/05/29 07:20:35;;;;;;;;;;;12.30;94.70;;;;;;4970087;28;19933;-64
2022/05/29 07:23:01;;;;;;;;;;;12.30;95.50;;;;;;4978616;28;20016;-65
2022/05/29 07:25:28;;;;;;;;;;;12.50;94.30;;;;;;4974294;28;19926;-64
2022/05/29 07:27:55;;;;;;;;;;;12.60;93.20;;;;;;4959262;28;19926;-64
2022/05/29 07:30:22;;;;;;;;;;;12.70;93.40;;;;;;4975131;28;20034;-65
2022/05/29 07:32:49;;;;;;;;;;;12.60;95.40;;;;;;4984799;28;19932;-64
2022/05/29 07:35:17;;;;;;;;;;;12.80;95.10;;;;;;4968485;28;19927;-65
2022/05/29 07:37:44;;;;;;;;;;;13.00;94.20;;;;;;4963090;28;19940;-68
2022/05/29 07:40:11;;;;;;;;;;;13.10;93.70;;;;;;4975836;28;19931;-67
2022/05/29 07:45:22;;;;;;;;;;;13.10;93.40;;;;;;4993164;28;19937;-67
2022/05/29 07:47:49;;;;;;;;;;;13.00;94.30;;;;;;4965660;28;19926;-66
2022/05/29 07:50:19;;;;;;;;;;;13.10;94.90;;;;;;4965597;28;20020;-67
2022/05/29 07:52:46;;;;;;;;;;;13.10;94.70;;;;;;4990389;28;19966;-67
2022/05/29 07:55:13;;;;;;;;;;;12.20;94.50;;;;;;4979333;28;19987;-67
2022/05/29 07:57:40;;;;;;;;;;;12.10;95.80;;;;;;5005758;28;19972;-66
2022/05/29 08:00:07;;;;;;;;;;;12.30;97.20;;;;;;5027425;28;20007;-65
2022/05/29 08:02:34;;;;;;;;;;;12.40;96.20;;;;;;4964814;28;19934;-67
2022/05/29 08:05:01;;;;;;;;;;;12.20;98.20;;;;;;4967575;28;19930;-66
2022/05/29 08:07:29;;;;;;;;;;;12.10;98.70;;;;;;4963764;28;20355;-66
2022/05/29 08:09:56;;;;;;;;;;;11.80;95.30;;;;;;4972194;28;19941;-66
2022/05/29 08:12:23;;;;;;;;;;;12.00;96.10;;;;;;4977772;28;20020;-66
2022/05/29 08:14:49;;;;;;;;;;;12.30;95.60;;;;;;4999997;28;19933;-66
2022/05/29 08:17:16;;;;;;;;;;;12.50;95.10;;;;;;4976869;28;19987;-66
2022/05/29 08:19:43;;;;;;;;;;;13.00;93.60;;;;;;4956992;28;19926;-67
2022/05/29 08:22:10;;;;;;;;;;;12.90;90.00;;;;;;4961010;28;19927;-67
2022/05/29 08:32:58;;;;;;;;;;;13.50;82.60;;;;;;4962164;28;20412;-66
2022/05/29 08:35:25;;;;;;;;;;;14.50;81.10;;;;;;4964515;28;19926;-66
2022/05/29 08:37:51;;;;;;;;;;;15.30;75.00;;;;;;4969329;28;20008;-65
2022/05/29 08:40:19;;;;;;;;;;;16.20;69.00;;;;;;4967049;28;19934;-64
2022/05/29 08:42:46;;;;;;;;;;;16.10;63.80;;;;;;4963555;28;19926;-66
2022/05/29 08:45:14;;;;;;;;;;;15.70;66.30;;;;;;4965221;28;20001;-66
2022/05/29 08:47:45;;;;;;;;;;;14.70;65.20;;;;;;4964185;28;19930;-66
2022/05/29 08:50:16;;;;;;;;;;;14.70;68.30;;;;;;4964762;28;19970;-66
2022/05/29 08:52:48;;;;;;;;;;;15.10;64.40;;;;;;4963194;28;20004;-65
2022/05/29 08:55:18;;;;;;;;;;;15.40;61.00;;;;;;4965067;28;20017;-66
2022/05/29 08:57:56;;;;;;;;;;;15.40;63.50;;;;;;4967056;28;19926;-67
2022/05/29 09:00:28;;;;;;;;;;;15.80;62.90;;;;;;4966110;28;20010;-67
2022/05/29 09:03:00;;;;;;;;;;;17.70;54.70;;;;;;4967361;28;20381;-66
2022/05/29 09:05:33;;;;;;;;;;;17.30;59.70;;;;;;4957833;28;20423;-67
2022/05/29 09:08:03;;;;;;;;;;;17.00;62.70;;;;;;4958436;28;20009;-67
2022/05/29 09:10:34;;;;;;;;;;;15.40;66.90;;;;;;4958416;28;19938;-67
2022/05/29 09:13:04;;;;;;;;;;;14.60;78.40;;;;;;4949573;28;19935;-68
2022/05/29 09:15:32;;;;;;;;;;;13.70;85.00;;;;;;4963607;28;19979;-68
2022/05/29 09:18:00;;;;;;;;;;;13.10;87.40;;;;;;4954972;28;19940;-69
2022/05/29 09:20:29;;;;;;;;;;;13.20;92.20;;;;;;4964071;28;20430;-68
2022/05/29 09:22:57;;;;;;;;;;;13.10;90.80;;;;;;4959719;28;19934;-68
2022/05/29 09:25:27;;;;;;;;;;;13.00;93.50;;;;;;4956265;28;19953;-67
2022/05/29 09:27:54;;;;;;;;;;;13.30;95.20;;;;;;4958968;28;19934;-67
2022/05/29 09:30:22;;;;;;;;;;;13.30;93.00;;;;;;4960935;28;20009;-66
2022/05/29 09:32:51;;;;;;;;;;;13.20;94.50;;;;;;4965105;28;19979;-67
2022/05/29 09:35:22;;;;;;;;;;;13.10;95.50;;;;;;4966526;28;19933;-67
2022/05/29 09:37:54;;;;;;;;;;;13.10;97.80;;;;;;4963118;28;19933;-66
2022/05/29 09:40:23;;;;;;;;;;;12.90;96.60;;;;;;4958112;28;19932;-68
2022/05/29 09:42:53;;;;;;;;;;;12.70;96.70;;;;;;4957988;28;19926;-67
2022/05/29 09:45:28;;;;;;;;;;;12.20;98.50;;;;;;4966242;28;20393;-68
2022/05/29 09:50:42;;;;;;;;;;;10.80;99.90;;;;;;4960791;28;20723;-68
2022/05/29 09:53:11;;;;;;;;;;;10.00;99.90;;;;;;4958886;28;20411;-67
2022/05/29 09:55:39;;;;;;;;;;;9.80;99.90;;;;;;4957857;28;19934;-67
2022/05/29 09:58:10;;;;;;;;;;;9.80;99.90;;;;;;4955360;28;20779;-67
2022/05/29 10:00:39;;;;;;;;;;;9.80;99.90;;;;;;4954521;28;19930;-65
2022/05/29 10:03:07;;;;;;;;;;;9.90;99.90;;;;;;4957744;28;19957;-65
2022/05/29 10:05:36;;;;;;;;;;;9.70;99.90;;;;;;4966720;28;19926;-67
2022/05/29 10:08:17;;;;;;;;;;;9.80;99.90;;;;;;4950778;28;20409;-67
2022/05/29 10:10:44;;;;;;;;;;;9.90;99.90;;;;;;4954212;28;20600;-66
2022/05/29 10:13:10;;;;;;;;;;;10.30;99.90;;;;;;4958449;28;19926;-66
2022/05/29 10:15:41;;;;;;;;;;;10.20;99.90;;;;;;4966516;28;20051;-67
2022/05/29 10:18:31;;;;;;;;;;;10.50;99.90;;;;;;4955240;28;20307;-66
2022/05/29 10:21:06;;;;;;;;;;;11.00;99.90;;;;;;4960562;28;20029;-66
2022/05/29 10:23:36;;;;;;;;;;;11.20;99.90;;;;;;4965784;28;19933;-66
2022/05/29 10:26:05;;;;;;;;;;;11.40;99.90;;;;;;4962298;28;19926;-67
2022/05/29 10:28:35;;;;;;;;;;;11.70;99.90;;;;;;4954002;28;19945;-66
2022/05/29 10:31:04;;;;;;;;;;;12.30;99.90;;;;;;4960906;28;19935;-66
2022/05/29 10:33:32;;;;;;;;;;;12.60;99.90;;;;;;4959006;28;19926;-66
2022/05/29 10:36:10;;;;;;;;;;;13.00;99.90;;;;;;4957629;28;19934;-65
2022/05/29 10:38:37;;;;;;;;;;;13.30;99.90;;;;;;4956127;28;20294;-67
2022/05/29 10:41:05;;;;;;;;;;;13.60;99.90;;;;;;4959924;28;19933;-67
2022/05/29 10:43:36;;;;;;;;;;;14.30;99.90;;;;;;4954510;28;19941;-67
2022/05/29 10:46:11;;;;;;;;;;;14.60;99.90;;;;;;4961878;28;20415;-67
2022/05/29 10:48:43;;;;;;;;;;;14.50;99.90;;;;;;4959647;28;19937;-67
2022/05/29 10:51:16;;;;;;;;;;;14.50;99.90;;;;;;4956573;28;20056;-67
2022/05/29 10:53:52;;;;;;;;;;;14.30;99.90;;;;;;4958972;28;20339;-67
2022/05/29 10:56:25;;;;;;;;;;;14.30;99.90;;;;;;4970275;28;19932;-67
2022/05/29 10:59:10;;;;;;;;;;;14.30;99.90;;;;;;4953978;28;20076;-68
2022/05/29 11:04:43;;;;;;;;;;;14.20;99.90;;;;;;4955429;28;20782;-67
2022/05/29 11:07:23;;;;;;;;;;;14.50;99.90;;;;;;4958036;28;20427;-67
2022/05/29 11:09:55;;;;;;;;;;;14.60;99.90;;;;;;4954351;28;19930;-67
2022/05/29 11:12:27;;;;;;;;;;;14.80;99.90;;;;;;4953115;28;19934;-68
2022/05/29 11:15:11;;;;;;;;;;;15.00;99.50;;;;;;4953944;28;20465;-68
2022/05/29 11:17:46;;;;;;;;;;;15.70;98.80;;;;;;4960647;28;20020;-68
2022/05/29 11:20:19;;;;;;;;;;;15.80;97.20;;;;;;4961073;28;19926;-69
2022/05/29 11:22:51;;;;;;;;;;;15.60;96.80;;;;;;4955782;28;19969;-68
2022/05/29 11:25:25;;;;;;;;;;;14.90;96.50;;;;;;4958150;28;19934;-68
2022/05/29 11:28:04;;;;;;;;;;;14.50;99.90;;;;;;4958967;28;19934;-68
2022/05/29 11:30:35;;;;;;;;;;;13.80;99.90;;;;;;4957233;28;19956;-68
2022/05/29 11:33:13;;;;;;;;;;;13.20;99.90;;;;;;4952021;28;19977;-68
2022/05/29 11:35:54;;;;;;;;;;;12.10;99.90;;;;;;4959815;28;19938;-67
2022/05/29 11:38:31;;;;;;;;;;;11.40;99.90;;;;;;4951023;28;19926;-66
2022/05/29 11:41:01;;;;;;;;;;;11.20;99.90;;;;;;4967432;28;20351;-67
2022/05/29 11:43:31;;;;;;;;;;;11.10;99.90;;;;;;4978076;28;20029;-66
2022/05/29 11:51:40;;;;;;;;;;;11.60;99.90;;;;;;4959681;28;19933;-66
2022/05/29 11:54:11;;;;;;;;;;;11.20;99.90;;;;;;4962137;28;19926;-69
2022/05/29 11:56:40;;;;;;;;;;;11.30;99.90;;;;;;4966925;28;19926;-70
2022/05/29 11:59:10;;;;;;;;;;;11.40;99.90;;;;;;4960430;28;19932;-69
2022/05/29 12:01:39;;;;;;;;;;;11.90;99.90;;;;;;4960184;28;20270;-69
2022/05/29 12:04:13;;;;;;;;;;;12.30;99.90;;;;;;4957758;28;19935;-70
2022/05/29 12:06:42;;;;;;;;;;;12.60;99.90;;;;;;4961629;28;19926;-70
2022/05/29 12:09:12;;;;;;;;;;;12.80;99.90;;;;;;4957975;28;20028;-67
2022/05/29 12:11:42;;;;;;;;;;;13.20;99.90;;;;;;4958108;28;20470;-68
2022/05/29 12:14:12;;;;;;;;;;;13.40;99.90;;;;;;4960633;28;19962;-68
2022/05/29 12:16:40;;;;;;;;;;;13.70;99.90;;;;;;4955326;28;19941;-68
2022/05/29 12:19:11;;;;;;;;;;;13.90;99.90;;;;;;4958309;28;20347;-68
2022/05/29 12:21:39;;;;;;;;;;;14.00;99.90;;;;;;4959232;28;19930;-69
2022/05/29 12:24:09;;;;;;;;;;;14.20;99.90;;;;;;4960814;28;19977;-68
2022/05/29 12:26:39;;;;;;;;;;;14.50;99.90;;;;;;4961061;28;19970;-66
2022/05/29 12:29:08;;;;;;;;;;;14.70;99.90;;;;;;4958300;28;20277;-66
2022/05/29 12:31:36;;;;;;;;;;;14.60;99.90;;;;;;4953905;28;20033;-67
2022/05/29 12:34:04;;;;;;;;;;;14.80;99.90;;;;;;4955865;28;20785;-67
2022/05/29 12:36:38;;;;;;;;;;;14.80;99.90;;;;;;4962754;28;19948;-67
2022/05/29 12:39:09;;;;;;;;;;;15.20;99.50;;;;;;4951693;28;20651;-67
2022/05/29 12:41:57;;;;;;;;;;;15.60;99.90;;;;;;4951505;28;21022;-68
2022/05/29 12:44:36;;;;;;;;;;;15.80;99.50;;;;;;4952839;28;20520;-66
2022/05/29 12:47:19;;;;;;;;;;;16.10;99.40;;;;;;4956859;28;19941;-66
2022/05/29 12:50:09;;;;;;;;;;;16.00;98.10;;;;;;4957110;28;19926;-66
2022/05/29 12:52:43;;;;;;;;;;;16.00;99.10;;;;;;4944457;28;19945;-66
2022/05/29 12:55:27;;;;;;;;;;;15.60;97.80;;;;;;4961491;28;19926;-69
2022/05/29 12:58:08;;;;;;;;;;;13.90;99.90;;;;;;4960758;28;20000;-68
2022/05/29 13:00:53;;;;;;;;;;;13.80;99.90;;;;;;4956241;28;19934;-68
2022/05/29 13:03:46;;;;;;;;;;;12.90;99.90;;;;;;4953443;28;20484;-69
2022/05/29 13:06:27;;;;;;;;;;;12.10;99.90;;;;;;4961966;28;20435;-68
2022/05/29 13:09:03;;;;;;;;;;;11.90;99.90;;;;;;4968511;28;19930;-67
2022/05/29 13:11:32;;;;;;;;;;;12.10;99.90;;;;;;4962201;28;19972;-68
2022/05/29 13:14:00;;;;;;;;;;;12.00;99.90;;;;;;4963228;28;19927;-68
2022/05/29 13:16:29;;;;;;;;;;;12.20;99.90;;;;;;4961039;28;19934;-68
2022/05/29 13:19:09;;;;;;;;;;;12.30;99.90;;;;;;4959943;28;20103;-69
2022/05/29 13:21:51;;;;;;;;;;;12.50;99.90;;;;;;4961357;28;20427;-68
2022/05/29 13:24:19;;;;;;;;;;;12.90;99.90;;;;;;4962323;28;19964;-69
2022/05/29 13:27:06;;;;;;;;;;;13.90;99.90;;;;;;4969220;28;20018;-69
2022/05/29 13:29:40;;;;;;;;;;;13.90;99.90;;;;;;4959191;28;20019;-67
2022/05/29 13:32:17;;;;;;;;;;;13.70;99.90;;;;;;4959850;28;20027;-67
2022/05/29 13:34:44;;;;;;;;;;;13.70;99.90;;;;;;4961160;28;20059;-70
2022/05/29 13:37:21;;;;;;;;;;;14.00;99.90;;;;;;4964473;28;19991;-70
2022/05/29 13:40:06;;;;;;;;;;;13.80;99.90;;;;;;4956059;28;19973;-68
2022/05/29 13:42:48;;;;;;;;;;;13.50;99.90;;;;;;4957477;28;19935;-68
2022/05/29 13:45:42;;;;;;;;;;;13.00;99.90;;;;;;4963480;28;20317;-69
2022/05/29 13:48:14;;;;;;;;;;;12.70;99.90;;;;;;4962669;28;19934;-69
2022/05/29 13:50:46;;;;;;;;;;;12.70;99.90;;;;;;4954976;28;19930;-69
2022/05/29 13:53:14;;;;;;;;;;;12.60;99.90;;;;;;4961433;28;19934;-68
2022/05/29 13:55:55;;;;;;;;;;;12.70;99.90;;;;;;4961542;28;19926;-70
2022/05/29 14:04:06;;;;;;;;;;;13.00;99.90;;;;;;4960637;28;19987;-69
2022/05/29 14:06:34;;;;;;;;;;;13.20;99.90;;;;;;4953389;28;19934;-70
2022/05/29 14:09:03;;;;;;;;;;;13.20;99.90;;;;;;4957783;28;19927;-69
2022/05/29 14:11:50;;;;;;;;;;;13.20;99.90;;;;;;4965158;28;20363;-69
2022/05/29 14:14:37;;;;;;;;;;;13.10;99.90;;;;;;4960228;28;20358;-69
2022/05/29 14:17:11;;;;;;;;;;;13.00;99.90;;;;;;4996501;28;20021;-68
2022/05/29 14:19:52;;;;;;;;;;;12.70;99.90;;;;;;4965080;28;19974;-66
2022/05/29 14:25:16;;;;;;;;;;;11.30;99.90;;;;;;4955485;28;20333;-66
2022/05/29 14:30:53;;;;;;;;;;;10.90;99.90;;;;;;5104494;27;19924;-66
2022/05/29 14:33:32;;;;;;;;;;;10.60;99.90;;;;;;5103268;28;20271;-65
2022/05/29 14:36:14;;;;;;;;;;;10.40;99.90;;;;;;5099027;28;19931;-66
2022/05/29 14:38:55;;;;;;;;;;;10.10;99.90;;;;;;5080829;28;19975;-66
2022/05/29 14:41:26;;;;;;;;;;;10.20;99.90;;;;;;5090887;27;19927;-66
2022/05/29 14:43:53;;;;;;;;;;;10.20;99.90;;;;;;5090919;28;20027;-66
2022/05/29 14:46:32;;;;;;;;;;;10.40;99.90;;;;;;5105628;28;19931;-66
2022/05/29 14:49:02;;;;;;;;;;;10.50;99.90;;;;;;5095875;28;19935;-67
2022/05/29 14:51:39;;;;;;;;;;;10.70;99.90;;;;;;5107438;28;20015;-67
2022/05/29 14:54:10;;;;;;;;;;;10.60;99.90;;;;;;5106967;28;20019;-68
2022/05/29 14:56:39;;;;;;;;;;;10.90;99.90;;;;;;5101391;28;19924;-67
2022/05/29 14:59:19;;;;;;;;;;;11.20;99.90;;;;;;5100617;28;19971;-67
2022/05/29 15:01:47;;;;;;;;;;;11.50;99.90;;;;;;5087194;28;19939;-67
2022/05/29 15:04:14;;;;;;;;;;;11.80;99.90;;;;;;5093067;28;20004;-67
2022/05/29 15:12:09;;;;;;;;;;;11.90;99.90;;;;;;5099309;28;19981;-67
2022/05/29 15:14:35;;;;;;;;;;;11.80;99.90;;;;;;5093493;28;19928;-67
2022/05/29 15:17:04;;;;;;;;;;;11.70;99.90;;;;;;5095622;28;19977;-68
2022/05/29 15:25:11;;;;;;;;;;;11.60;99.90;;;;;;5084550;28;19939;-66
2022/05/29 15:27:41;;;;;;;;;;;11.60;99.90;;;;;;5100617;28;19924;-67
2022/05/29 15:30:12;;;;;;;;;;;11.50;99.90;;;;;;5122722;27;20007;-67
2022/05/29 15:32:41;;;;;;;;;;;11.40;99.90;;;;;;5115517;27;20403;-68
2022/05/29 15:35:15;;;;;;;;;;;11.60;99.90;;;;;;5118477;27;19932;-67
2022/05/29 15:37:48;;;;;;;;;;;11.60;99.90;;;;;;5116621;27;19924;-68
2022/05/29 15:40:23;;;;;;;;;;;11.80;99.90;;;;;;5126540;27;20018;-68